createdAt,value
2022-12-15T00:02:36.202Z,-0.23
2022-12-15T00:06:58.664Z,-0.21
2022-12-15T00:11:21.140Z,-0.22
2022-12-15T00:15:41.432Z,-0.26
2022-12-15T00:20:01.704Z,-0.29
2022-12-15T00:24:24.275Z,-0.30
2022-12-15T00:28:44.446Z,-0.27
2022-12-15T00:33:04.800Z,-0.25
2022-12-15T00:37:25.127Z,-0.25
2022-12-15T00:41:29.625Z,-0.23
2022-12-15T00:45:46.833Z,-0.25
2022-12-15T00:50:07.667Z,-0.22
2022-12-15T00:54:28.460Z,-0.15
2022-12-15T00:58:50.675Z,-0.07
2022-12-15T01:03:11.150Z,-0.01
2022-12-15T01:07:32.800Z,0.06
2022-12-15T01:11:53.155Z,0.12
2022-12-15T01:16:15.052Z,0.15
2022-12-15T01:20:19.147Z,0.17
2022-12-15T01:24:22.302Z,0.19
2022-12-15T01:28:25.990Z,0.19
2022-12-15T01:32:30.489Z,0.20
2022-12-15T01:36:33.511Z,0.20
2022-12-15T01:40:46.385Z,0.15
2022-12-15T01:44:52.873Z,0.14
2022-12-15T01:49:01.581Z,0.15
2022-12-15T01:53:05.010Z,0.17
2022-12-15T01:57:11.922Z,0.18
2022-12-15T02:01:15.016Z,0.18
2022-12-15T02:05:21.012Z,0.19
2022-12-15T02:09:26.825Z,0.20
2022-12-15T02:13:36.392Z,0.22
2022-12-15T02:17:49.951Z,0.21
2022-12-15T02:22:10.508Z,0.11
2022-12-15T02:26:49.833Z,0.04
2022-12-15T02:31:15.932Z,-0.03
2022-12-15T02:35:26.386Z,-0.08
2022-12-15T02:39:30.323Z,-0.10
2022-12-15T02:43:38.904Z,-0.13
2022-12-15T02:47:52.234Z,-0.17
2022-12-15T02:52:08.714Z,-0.16
2022-12-15T02:56:18.484Z,-0.13
2022-12-15T03:00:22.477Z,-0.09
2022-12-15T03:04:27.909Z,-0.05
2022-12-15T03:08:30.960Z,-0.01
2022-12-15T03:12:34.182Z,-0.01
2022-12-15T03:16:37.323Z,-0.04
2022-12-15T03:20:41.941Z,-0.04
2022-12-15T03:24:45.042Z,-0.01
2022-12-15T03:28:48.083Z,-0.05
2022-12-15T03:32:51.222Z,-0.03
2022-12-15T03:36:55.907Z,-0.07
2022-12-15T03:40:58.962Z,-0.06
2022-12-15T03:45:01.981Z,-0.06
2022-12-15T03:49:05.327Z,-0.04
2022-12-15T03:53:09.717Z,-0.02
2022-12-15T03:57:13.300Z,0.03
2022-12-15T04:01:27.239Z,0.04
2022-12-15T04:05:33.096Z,0.06
2022-12-15T04:09:37.933Z,0.10
2022-12-15T04:13:41.121Z,0.11
2022-12-15T04:17:44.454Z,0.10
2022-12-15T04:21:47.481Z,0.10
2022-12-15T04:26:09.368Z,0.11
2022-12-15T04:30:32.251Z,0.14
2022-12-15T04:34:54.182Z,0.17
2022-12-15T04:39:15.801Z,0.20
2022-12-15T04:43:37.783Z,0.17
2022-12-15T04:47:58.352Z,0.09
2022-12-15T04:52:18.646Z,0.01
2022-12-15T04:56:39.228Z,0.02
2022-12-15T05:01:01.216Z,0.05
2022-12-15T05:05:22.226Z,0.10
2022-12-15T05:09:42.530Z,0.17
2022-12-15T05:14:02.865Z,0.22
2022-12-15T05:18:24.849Z,0.28
2022-12-15T05:23:12.957Z,0.33
2022-12-15T05:27:33.487Z,0.33
2022-12-15T05:31:52.008Z,0.34
2022-12-15T05:35:59.062Z,0.35
2022-12-15T05:40:02.006Z,0.34
2022-12-15T05:44:05.101Z,0.34
2022-12-15T05:48:08.460Z,0.36
2022-12-15T05:52:12.988Z,0.39
2022-12-15T05:56:16.715Z,0.41
2022-12-15T06:00:20.138Z,0.39
2022-12-15T06:04:23.104Z,0.37
2022-12-15T06:08:27.531Z,0.36
2022-12-15T06:12:30.464Z,0.36
2022-12-15T06:16:33.863Z,0.39
2022-12-15T06:20:36.810Z,0.38
2022-12-15T06:24:41.125Z,0.38
2022-12-15T06:28:44.161Z,0.36
2022-12-15T06:32:47.125Z,0.29
2022-12-15T06:36:52.999Z,0.21
2022-12-15T06:40:58.152Z,0.15
2022-12-15T06:45:01.082Z,0.13
2022-12-15T06:49:04.119Z,0.11
2022-12-15T06:53:07.041Z,0.12
2022-12-15T06:57:11.355Z,0.07
2022-12-15T07:01:15.542Z,0.02
2022-12-15T07:05:18.717Z,0.02
2022-12-15T07:09:21.655Z,0.01
2022-12-15T07:13:26.399Z,-0.03
2022-12-15T07:17:29.988Z,-0.07
2022-12-15T07:21:33.450Z,-0.09
2022-12-15T07:25:37.191Z,-0.07
2022-12-15T07:29:42.199Z,-0.08
2022-12-15T07:33:45.530Z,-0.10
2022-12-15T07:37:48.753Z,-0.12
2022-12-15T07:41:51.753Z,-0.09
2022-12-15T07:45:56.130Z,-0.03
2022-12-15T07:49:59.221Z,0.08
2022-12-15T07:54:02.187Z,0.12
2022-12-15T07:58:05.104Z,0.20
2022-12-15T08:02:10.735Z,0.28
2022-12-15T08:06:15.463Z,0.30
2022-12-15T08:10:18.582Z,0.35
2022-12-15T08:14:22.257Z,0.37
2022-12-15T08:18:26.994Z,0.44
2022-12-15T08:22:29.896Z,0.45
2022-12-15T08:26:32.840Z,0.49
2022-12-15T08:30:36.645Z,0.52
2022-12-15T08:34:42.306Z,0.55
2022-12-15T08:38:46.582Z,0.58
2022-12-15T08:42:49.517Z,0.60
2022-12-15T08:46:52.458Z,0.64
2022-12-15T08:50:58.038Z,0.70
2022-12-15T08:55:00.985Z,0.74
2022-12-15T08:59:03.930Z,0.83
2022-12-15T09:03:06.848Z,0.80
2022-12-15T09:07:11.141Z,0.80
2022-12-15T09:11:14.155Z,0.83
2022-12-15T09:15:17.525Z,0.88
2022-12-15T09:19:20.475Z,0.94
2022-12-15T09:23:25.018Z,0.99
2022-12-15T09:27:29.217Z,1.01
2022-12-15T09:31:34.061Z,0.92
2022-12-15T09:35:37.065Z,0.92
2022-12-15T09:39:41.391Z,0.94
2022-12-15T09:43:56.615Z,0.97
2022-12-15T09:48:05.361Z,1.05
2022-12-15T09:52:13.644Z,1.04
2022-12-15T09:56:23.931Z,1.11
2022-12-15T10:00:32.074Z,1.17
2022-12-15T10:04:46.705Z,1.20
2022-12-15T10:08:56.965Z,1.18
2022-12-15T10:13:05.836Z,1.30
2022-12-15T10:17:19.896Z,1.34
2022-12-15T10:21:26.263Z,1.38
2022-12-15T10:25:31.271Z,1.45
2022-12-15T10:29:44.199Z,1.53
2022-12-15T10:33:59.133Z,1.50
2022-12-15T10:38:04.625Z,1.43
2022-12-15T10:42:12.959Z,1.37
2022-12-15T10:46:19.748Z,1.37
2022-12-15T10:50:25.379Z,1.36
2022-12-15T10:54:33.227Z,1.31
2022-12-15T10:58:50.250Z,1.24
2022-12-15T11:02:54.959Z,1.26
2022-12-15T11:06:58.903Z,1.25
2022-12-15T11:11:19.170Z,1.24
2022-12-15T11:15:42.128Z,1.35
2022-12-15T11:19:59.821Z,1.38
2022-12-15T11:24:11.851Z,1.45
2022-12-15T11:28:19.721Z,1.51
2022-12-15T11:32:26.102Z,1.48
2022-12-15T11:36:57.206Z,1.49
2022-12-15T11:41:12.101Z,1.47
2022-12-15T11:45:21.194Z,1.44
2022-12-15T11:49:47.245Z,1.37
2022-12-15T11:54:16.720Z,1.37
2022-12-15T11:58:39.637Z,1.34
2022-12-15T12:03:05.670Z,1.30
2022-12-15T12:07:16.053Z,1.31
2022-12-15T12:11:24.512Z,1.33
2022-12-15T12:15:33.671Z,1.30
2022-12-15T12:19:42.707Z,1.34
2022-12-15T12:23:51.056Z,1.35
2022-12-15T12:27:58.554Z,1.32
2022-12-15T12:32:08.790Z,1.36
2022-12-15T12:36:13.625Z,1.33
2022-12-15T12:40:21.133Z,1.30
2022-12-15T12:44:32.057Z,1.27
2022-12-15T12:48:38.748Z,1.26
2022-12-15T12:52:50.956Z,1.26
2022-12-15T12:56:53.957Z,1.24
2022-12-15T13:01:13.550Z,1.26
2022-12-15T13:05:29.595Z,1.23
2022-12-15T13:09:41.696Z,1.24
2022-12-15T13:13:51.273Z,1.23
2022-12-15T13:18:01.499Z,1.25
2022-12-15T13:22:04.761Z,1.25
2022-12-15T13:26:19.443Z,1.24
2022-12-15T13:30:22.794Z,1.24
2022-12-15T13:34:29.481Z,1.14
2022-12-15T13:38:53.409Z,1.13
2022-12-15T13:42:59.270Z,1.14
2022-12-15T13:47:10.862Z,1.15
2022-12-15T13:51:26.949Z,1.13
2022-12-15T13:55:38.343Z,1.09
2022-12-15T13:59:45.693Z,1.10
2022-12-15T14:03:59.911Z,1.12
2022-12-15T14:08:11.901Z,1.07
2022-12-15T14:12:15.262Z,1.01
2022-12-15T14:16:21.195Z,1.04
2022-12-15T14:20:27.683Z,1.06
2022-12-15T14:24:41.237Z,1.01
2022-12-15T14:28:46.797Z,0.98
2022-12-15T14:32:57.082Z,0.98
2022-12-15T14:37:04.509Z,0.97
2022-12-15T14:41:13.380Z,0.92
2022-12-15T14:45:21.105Z,0.89
2022-12-15T14:49:27.882Z,0.92
2022-12-15T14:53:34.849Z,0.92
2022-12-15T14:57:44.465Z,0.87
2022-12-15T15:01:58.674Z,0.85
2022-12-15T15:06:06.807Z,0.82
2022-12-15T15:10:23.343Z,0.79
2022-12-15T15:14:30.210Z,0.74
2022-12-15T15:18:33.981Z,0.72
2022-12-15T15:22:40.888Z,0.70
2022-12-15T15:26:44.546Z,0.67
2022-12-15T15:30:50.508Z,0.61
2022-12-15T15:34:53.565Z,0.59
2022-12-15T15:38:56.618Z,0.58
2022-12-15T15:42:59.580Z,0.58
2022-12-15T15:47:04.863Z,0.57
2022-12-15T15:51:08.505Z,0.56
2022-12-15T15:55:16.277Z,0.52
2022-12-15T15:59:21.967Z,0.47
2022-12-15T16:03:26.927Z,0.44
2022-12-15T16:07:30.290Z,0.45
2022-12-15T16:11:33.239Z,0.47
2022-12-15T16:15:37.846Z,0.44
2022-12-15T16:19:42.236Z,0.43
2022-12-15T16:23:47.218Z,0.39
2022-12-15T16:27:50.214Z,0.44
2022-12-15T16:31:53.236Z,0.47
2022-12-15T16:35:59.041Z,0.48
2022-12-15T16:40:02.027Z,0.47
2022-12-15T16:44:05.896Z,0.48
2022-12-15T16:48:08.810Z,0.51
2022-12-15T16:52:20.742Z,0.46
2022-12-15T16:56:24.002Z,0.46
2022-12-15T17:00:34.141Z,0.46
2022-12-15T17:04:37.295Z,0.46
2022-12-15T17:08:44.721Z,0.46
2022-12-15T17:12:47.810Z,0.47
2022-12-15T17:16:50.711Z,0.46
2022-12-15T17:21:04.304Z,0.51
2022-12-15T17:25:16.617Z,0.56
2022-12-15T17:29:21.703Z,0.55
2022-12-15T17:33:27.316Z,0.49
2022-12-15T17:37:35.069Z,0.49
2022-12-15T17:46:02.721Z,0.51
2022-12-15T17:50:06.274Z,0.61
2022-12-15T17:54:12.099Z,0.68
2022-12-15T17:58:20.546Z,0.75
2022-12-15T18:02:23.630Z,0.74
2022-12-15T18:06:27.080Z,0.74
2022-12-15T18:10:32.872Z,0.75
2022-12-15T18:14:37.168Z,0.76
2022-12-15T18:18:43.134Z,0.77
2022-12-15T18:22:46.976Z,0.75
2022-12-15T18:26:50.074Z,0.69
2022-12-15T18:30:56.373Z,0.69
2022-12-15T18:34:59.527Z,0.65
2022-12-15T18:39:10.159Z,0.64
2022-12-15T18:43:16.173Z,0.66
2022-12-15T18:47:22.871Z,0.66
2022-12-15T18:51:26.014Z,0.63
2022-12-15T18:55:32.313Z,0.66
2022-12-15T18:59:35.313Z,0.63
2022-12-15T19:03:41.120Z,0.60
2022-12-15T19:07:44.427Z,0.58
2022-12-15T19:12:17.736Z,0.58
2022-12-15T19:16:22.269Z,0.68
2022-12-15T19:20:44.212Z,0.69
2022-12-15T19:24:55.893Z,0.66
2022-12-15T19:28:59.133Z,0.67
2022-12-15T19:33:02.401Z,0.73
2022-12-15T19:37:12.991Z,0.77
2022-12-15T19:41:18.274Z,0.73
2022-12-15T19:45:24.086Z,0.72
2022-12-15T19:49:27.234Z,0.67
2022-12-15T19:53:32.536Z,0.64
2022-12-15T19:57:35.961Z,0.56
2022-12-15T20:01:39.087Z,0.51
2022-12-15T20:05:42.782Z,0.49
2022-12-15T20:09:47.556Z,0.46
2022-12-15T20:13:51.749Z,0.41
2022-12-15T20:17:57.022Z,0.38
2022-12-15T20:22:03.481Z,0.36
2022-12-15T20:26:08.164Z,0.34
2022-12-15T20:30:19.100Z,0.33
2022-12-15T20:34:23.096Z,0.32
2022-12-15T20:38:31.556Z,0.32
2022-12-15T20:42:36.125Z,0.33
2022-12-15T20:46:40.145Z,0.31
2022-12-15T20:50:45.623Z,0.29
2022-12-15T20:54:48.725Z,0.30
2022-12-15T20:58:53.767Z,0.28
2022-12-15T21:02:57.057Z,0.29
2022-12-15T21:07:00.296Z,0.31
2022-12-15T21:11:12.205Z,0.26
2022-12-15T21:15:18.397Z,0.24
2022-12-15T21:19:22.621Z,0.21
2022-12-15T21:23:28.461Z,0.23
2022-12-15T21:27:31.556Z,0.20
2022-12-15T21:31:35.941Z,0.20
2022-12-15T21:35:41.129Z,0.18
2022-12-15T21:39:44.244Z,0.14
2022-12-15T21:43:48.263Z,0.14
2022-12-15T21:48:11.014Z,0.06
2022-12-15T21:52:14.537Z,0.03
2022-12-15T21:56:19.680Z,0.02
2022-12-15T22:00:23.492Z,0.02
2022-12-15T22:04:31.376Z,0.04
2022-12-15T22:08:35.194Z,0.07
2022-12-15T22:12:39.902Z,0.08
2022-12-15T22:16:43.086Z,0.07
2022-12-15T22:20:49.948Z,0.10
2022-12-15T22:24:53.253Z,0.06
2022-12-15T22:28:58.194Z,0.12
2022-12-15T22:33:01.777Z,0.14
2022-12-15T22:37:06.163Z,0.13
2022-12-15T22:41:18.347Z,0.20
2022-12-15T22:45:23.964Z,0.18
2022-12-15T22:49:32.103Z,0.16
2022-12-15T22:53:36.867Z,0.15
2022-12-15T22:57:40.002Z,0.19
2022-12-15T23:01:43.065Z,0.26
2022-12-15T23:05:46.446Z,0.25
2022-12-15T23:10:10.814Z,0.26
2022-12-15T23:14:16.246Z,0.29
2022-12-15T23:18:19.591Z,0.35
2022-12-15T23:22:22.947Z,0.36
2022-12-15T23:26:27.491Z,0.39
2022-12-15T23:30:30.526Z,0.41
2022-12-15T23:34:33.547Z,0.39
2022-12-15T23:38:37.106Z,0.44
2022-12-15T23:42:41.457Z,0.49
2022-12-15T23:46:45.224Z,0.47
2022-12-15T23:50:49.781Z,0.42
2022-12-15T23:54:53.649Z,0.49
2022-12-15T23:59:00.369Z,0.49
